Time;durP1;ratioP1;P1;durP2;ratioP2;P2;SDS_P1;SDS_P2;PMS_P1;PMS_P2;Temp;Humidity;BMP_temperature;BMP_pressure;BME280_temperature;BME280_humidity;BME280_pressure;Samples;Min_cycle;Max_cycle;Signal;HPM_P1;HPM_P2
2022/11/04 00:01:16;;;;;;;177.37;51.23;;;;;;;;;;4921692;29;20205;-41
2022/11/04 00:03:43;;;;;;;197.93;60.97;;;;;;;;;;4921323;29;20201;-42
2022/11/04 00:06:10;;;;;;;87.80;29.97;;;;;;;;;;4921190;29;20224;-41
2022/11/04 00:08:37;;;;;;;53.83;21.53;;;;;;;;;;4921452;29;20299;-45
2022/11/04 00:13:50;;;;;;;29.23;13.83;;;;;;;;;;4920744;29;20197;-42
2022/11/04 00:19:02;;;;;;;39.43;19.03;;;;;;;;;;4921327;29;20280;-43
2022/11/04 00:29:46;;;;;;;18.40;10.40;;;;;;;;;;4920329;29;20193;-42
2022/11/04 00:34:58;;;;;;;21.93;10.67;;;;;;;;;;4920943;29;20275;-42
2022/11/04 00:37:25;;;;;;;16.17;8.93;;;;;;;;;;4921374;29;20208;-45
2022/11/04 00:39:52;;;;;;;22.23;13.07;;;;;;;;;;4920367;29;20205;-42
2022/11/04 00:42:19;;;;;;;25.20;16.30;;;;;;;;;;4920583;29;20205;-41
2022/11/04 00:44:46;;;;;;;81.30;47.73;;;;;;;;;;4920724;29;20217;-43
2022/11/04 00:47:13;;;;;;;167.53;89.60;;;;;;;;;;4920635;29;20263;-43
2022/11/04 00:49:40;;;;;;;157.87;58.13;;;;;;;;;;4920459;29;20220;-41
2022/11/04 00:52:07;;;;;;;121.40;34.87;;;;;;;;;;4920194;29;20248;-42
2022/11/04 00:54:34;;;;;;;90.40;27.43;;;;;;;;;;4920796;29;20200;-43
2022/11/04 00:57:01;;;;;;;80.33;24.73;;;;;;;;;;4920676;29;20235;-42
2022/11/04 00:59:28;;;;;;;45.13;18.50;;;;;;;;;;4920381;29;20208;-42
2022/11/04 01:01:55;;;;;;;51.87;21.77;;;;;;;;;;4920077;29;20719;-43
2022/11/04 01:04:22;;;;;;;43.00;18.67;;;;;;;;;;4920067;29;20231;-43
2022/11/04 01:06:49;;;;;;;51.53;21.50;;;;;;;;;;4920437;29;20227;-44
2022/11/04 01:09:17;;;;;;;35.00;15.47;;;;;;;;;;4920251;29;20212;-42
2022/11/04 01:11:44;;;;;;;23.23;12.63;;;;;;;;;;4919974;29;20323;-42
2022/11/04 01:14:11;;;;;;;18.87;10.40;;;;;;;;;;4919807;29;20543;-43
2022/11/04 01:16:38;;;;;;;18.87;11.30;;;;;;;;;;4920318;29;20197;-43
2022/11/04 01:19:06;;;;;;;23.50;13.83;;;;;;;;;;4919973;29;20212;-42
2022/11/04 01:21:32;;;;;;;20.50;10.77;;;;;;;;;;4919966;29;20220;-44
2022/11/04 01:24:00;;;;;;;17.00;11.10;;;;;;;;;;4919769;29;20220;-43
2022/11/04 01:26:27;;;;;;;19.37;10.20;;;;;;;;;;4919931;29;20212;-44
2022/11/04 01:28:55;;;;;;;19.93;10.80;;;;;;;;;;4920070;29;20205;-41
2022/11/04 01:31:25;;;;;;;26.07;16.53;;;;;;;;;;4919800;29;20261;-43
2022/11/04 01:33:53;;;;;;;26.33;17.40;;;;;;;;;;4919673;29;20538;-44
2022/11/04 01:36:20;;;;;;;118.17;69.10;;;;;;;;;;4918948;29;20224;-42
2022/11/04 01:38:48;;;;;;;124.10;38.47;;;;;;;;;;4919441;29;20208;-42
2022/11/04 01:41:21;;;;;;;157.93;42.87;;;;;;;;;;4919573;29;20704;-42
2022/11/04 01:44:02;;;;;;;144.17;38.23;;;;;;;;;;4919867;29;20234;-42
2022/11/04 01:46:42;;;;;;;93.77;28.93;;;;;;;;;;4919927;29;20208;-42
2022/11/04 01:49:26;;;;;;;52.00;20.67;;;;;;;;;;4919578;29;20185;-45
2022/11/04 01:51:59;;;;;;;26.77;12.43;;;;;;;;;;4919409;29;20229;-44
2022/11/04 01:54:27;;;;;;;28.43;13.07;;;;;;;;;;4919969;29;20210;-46
2022/11/04 01:56:54;;;;;;;22.93;12.97;;;;;;;;;;4919271;29;20287;-43
2022/11/04 01:59:25;;;;;;;17.53;10.97;;;;;;;;;;4918991;29;20205;-43
2022/11/04 02:01:53;;;;;;;19.63;11.63;;;;;;;;;;4919235;29;20220;-46
2022/11/04 02:04:27;;;;;;;24.80;11.70;;;;;;;;;;4902786;29;20201;-44
2022/11/04 02:06:59;;;;;;;23.33;11.93;;;;;;;;;;4919218;29;20519;-43
2022/11/04 02:09:28;;;;;;;24.13;13.23;;;;;;;;;;4919571;29;20205;-43
2022/11/04 02:14:41;;;;;;;30.53;13.30;;;;;;;;;;4918913;29;20316;-43
2022/11/04 02:17:17;;;;;;;33.87;15.43;;;;;;;;;;4918866;29;20296;-44
2022/11/04 02:20:04;;;;;;;26.90;13.63;;;;;;;;;;4918926;29;20279;-43
2022/11/04 02:22:44;;;;;;;26.23;12.90;;;;;;;;;;4918809;29;20228;-42
2022/11/04 02:25:36;;;;;;;29.33;14.23;;;;;;;;;;4902516;29;20193;-42
2022/11/04 02:28:41;;;;;;;22.67;12.40;;;;;;;;;;4919094;29;20232;-41
2022/11/04 02:31:18;;;;;;;22.17;13.00;;;;;;;;;;4918676;29;20240;-40
2022/11/04 02:34:04;;;;;;;29.97;14.73;;;;;;;;;;4903379;29;20508;-43
2022/11/04 02:36:49;;;;;;;41.87;22.80;;;;;;;;;;4918985;29;20208;-42
2022/11/04 02:39:32;;;;;;;131.00;78.43;;;;;;;;;;4918969;29;20220;-41
2022/11/04 02:42:14;;;;;;;69.13;34.53;;;;;;;;;;4918594;29;20211;-45
2022/11/04 02:44:47;;;;;;;108.70;30.10;;;;;;;;;;4901757;29;20204;-43
2022/11/04 02:47:26;;;;;;;54.17;19.80;;;;;;;;;;4902583;29;20249;-43
2022/11/04 02:50:14;;;;;;;44.47;16.63;;;;;;;;;;4902517;29;20196;-41
2022/11/04 02:53:04;;;;;;;51.53;18.03;;;;;;;;;;4918852;29;20200;-41
2022/11/04 02:55:37;;;;;;;43.47;17.97;;;;;;;;;;4911339;29;20644;-42
2022/11/04 02:58:08;;;;;;;33.30;14.97;;;;;;;;;;4900944;29;20637;-43
2022/11/04 03:00:38;;;;;;;23.87;12.33;;;;;;;;;;4917834;29;20216;-42
2022/11/04 03:03:13;;;;;;;19.57;10.30;;;;;;;;;;4902203;29;20567;-43
2022/11/04 03:05:43;;;;;;;16.60;11.07;;;;;;;;;;4902530;29;20223;-41
2022/11/04 03:08:15;;;;;;;12.80;9.20;;;;;;;;;;4919080;29;20189;-42
2022/11/04 03:10:45;;;;;;;14.50;8.53;;;;;;;;;;4901998;29;20240;-41
2022/11/04 03:13:23;;;;;;;15.43;8.60;;;;;;;;;;4870117;29;20231;-42
2022/11/04 03:15:53;;;;;;;16.50;8.30;;;;;;;;;;4901895;29;20668;-42
2022/11/04 03:18:31;;;;;;;12.40;7.97;;;;;;;;;;4902512;29;20213;-42
2022/11/04 03:21:01;;;;;;;11.40;8.10;;;;;;;;;;4902211;29;20236;-41
2022/11/04 03:23:29;;;;;;;14.93;8.27;;;;;;;;;;4918075;29;20208;-42
2022/11/04 03:26:03;;;;;;;13.93;8.00;;;;;;;;;;4901456;29;20219;-42
2022/11/04 03:29:03;;;;;;;16.87;8.23;;;;;;;;;;4902232;29;20204;-41
2022/11/04 03:31:45;;;;;;;12.63;7.77;;;;;;;;;;4867796;29;20250;-42
2022/11/04 03:34:12;;;;;;;10.53;7.73;;;;;;;;;;4918303;29;20205;-41
2022/11/04 03:36:39;;;;;;;14.67;8.40;;;;;;;;;;4901872;29;20228;-42
2022/11/04 03:39:06;;;;;;;17.30;8.53;;;;;;;;;;4901570;29;20644;-41
2022/11/04 03:41:38;;;;;;;11.83;8.27;;;;;;;;;;4918513;29;20681;-42
2022/11/04 03:44:06;;;;;;;12.53;7.73;;;;;;;;;;4918130;29;20217;-40
2022/11/04 03:46:33;;;;;;;15.20;8.30;;;;;;;;;;4918224;29;20291;-43
2022/11/04 03:49:01;;;;;;;14.10;8.53;;;;;;;;;;4918217;29;20231;-44
2022/11/04 03:51:27;;;;;;;17.07;10.17;;;;;;;;;;4901694;29;20316;-42
2022/11/04 03:53:55;;;;;;;21.73;11.37;;;;;;;;;;4917505;29;20640;-41
2022/11/04 03:56:54;;;;;;;19.57;10.40;;;;;;;;;;4917952;29;20628;-44
2022/11/04 03:59:58;;;;;;;17.87;9.40;;;;;;;;;;4903468;29;20204;-42
2022/11/04 04:02:48;;;;;;;20.57;9.27;;;;;;;;;;4921212;29;20651;-43
2022/11/04 04:05:54;;;;;;;15.37;9.00;;;;;;;;;;4905408;29;20255;-46
2022/11/04 04:08:21;;;;;;;19.23;10.37;;;;;;;;;;4896375;29;20205;-42
2022/11/04 04:11:02;;;;;;;11.30;8.47;;;;;;;;;;4920919;29;20216;-42
2022/11/04 04:13:32;;;;;;;13.23;8.73;;;;;;;;;;4904907;29;20571;-43
2022/11/04 04:16:09;;;;;;;21.97;10.10;;;;;;;;;;4921013;29;20574;-42
2022/11/04 04:18:43;;;;;;;15.10;9.17;;;;;;;;;;4904355;29;20606;-42
2022/11/04 04:21:14;;;;;;;17.50;10.23;;;;;;;;;;4904937;29;20260;-42
2022/11/04 04:29:14;;;;;;;26.40;9.80;;;;;;;;;;4914709;29;20238;-42
2022/11/04 04:31:56;;;;;;;17.67;9.93;;;;;;;;;;4923071;29;20303;-42
2022/11/04 04:34:27;;;;;;;14.00;9.80;;;;;;;;;;4939589;29;20203;-42
2022/11/04 04:37:11;;;;;;;15.00;10.53;;;;;;;;;;4923420;29;20204;-42
2022/11/04 04:45:28;;;;;;;17.87;11.80;;;;;;;;;;4912733;29;20244;-43
2022/11/04 04:47:55;;;;;;;18.00;11.57;;;;;;;;;;4925891;29;20193;-45
2022/11/04 04:50:26;;;;;;;18.23;10.27;;;;;;;;;;4914730;29;20299;-47
2022/11/04 04:52:55;;;;;;;17.47;10.80;;;;;;;;;;4938919;29;20660;-43
2022/11/04 04:55:22;;;;;;;19.07;11.17;;;;;;;;;;4935008;29;20299;-42
2022/11/04 04:57:49;;;;;;;19.07;11.30;;;;;;;;;;4931783;29;20747;-43
2022/11/04 05:00:18;;;;;;;25.33;11.50;;;;;;;;;;4933268;29;20206;-44
2022/11/04 05:02:47;;;;;;;24.53;12.13;;;;;;;;;;4934002;29;20275;-42
2022/11/04 05:05:14;;;;;;;20.67;12.97;;;;;;;;;;4939154;29;20224;-44
2022/11/04 05:07:46;;;;;;;22.90;13.93;;;;;;;;;;4938873;29;20211;-43
2022/11/04 05:10:14;;;;;;;25.53;15.17;;;;;;;;;;4927688;29;20666;-44
2022/11/04 05:15:28;;;;;;;55.60;23.10;;;;;;;;;;4925191;29;20235;-43
2022/11/04 05:17:57;;;;;;;27.53;14.50;;;;;;;;;;4918749;29;20238;-43
2022/11/04 05:20:25;;;;;;;39.43;15.97;;;;;;;;;;4918852;29;20235;-43
2022/11/04 05:22:53;;;;;;;23.87;13.13;;;;;;;;;;4918757;29;20706;-42
2022/11/04 05:25:20;;;;;;;17.97;11.90;;;;;;;;;;4919000;29;20225;-44
2022/11/04 05:27:47;;;;;;;23.80;12.30;;;;;;;;;;4918950;29;20775;-42
2022/11/04 05:30:14;;;;;;;21.30;12.57;;;;;;;;;;4918490;29;20231;-42
2022/11/04 05:32:41;;;;;;;23.73;12.47;;;;;;;;;;4918635;29;20358;-42
2022/11/04 05:35:09;;;;;;;22.83;11.80;;;;;;;;;;4918561;29;20660;-44
2022/11/04 05:37:35;;;;;;;21.90;12.30;;;;;;;;;;4919140;29;20229;-44
2022/11/04 05:40:03;;;;;;;25.87;13.03;;;;;;;;;;4918240;29;20232;-47
2022/11/04 05:42:30;;;;;;;25.97;14.73;;;;;;;;;;4918731;29;20743;-43
2022/11/04 05:44:57;;;;;;;19.80;12.80;;;;;;;;;;4916818;29;20240;-42
2022/11/04 05:47:24;;;;;;;25.20;14.63;;;;;;;;;;4918594;29;20608;-42
2022/11/04 05:49:51;;;;;;;26.23;13.13;;;;;;;;;;4918018;29;20233;-43
2022/11/04 05:52:18;;;;;;;28.37;15.07;;;;;;;;;;4918350;29;20240;-43
2022/11/04 05:54:46;;;;;;;25.57;13.40;;;;;;;;;;4917773;29;20295;-43
2022/11/04 05:57:13;;;;;;;20.40;12.73;;;;;;;;;;4917492;29;20263;-43
2022/11/04 05:59:40;;;;;;;23.13;12.50;;;;;;;;;;4918044;29;20223;-44
2022/11/04 06:02:07;;;;;;;21.93;12.23;;;;;;;;;;4917644;29;20276;-44
2022/11/04 06:04:34;;;;;;;16.77;10.47;;;;;;;;;;4921073;29;20224;-44
2022/11/04 06:07:01;;;;;;;22.33;12.10;;;;;;;;;;4923090;29;20229;-44
2022/11/04 06:09:37;;;;;;;19.33;10.90;;;;;;;;;;4919060;29;20549;-43
2022/11/04 06:12:10;;;;;;;56.60;22.93;;;;;;;;;;4920540;29;20231;-43
2022/11/04 06:14:37;;;;;;;56.53;20.47;;;;;;;;;;4922676;29;20241;-46
2022/11/04 06:17:04;;;;;;;24.47;14.17;;;;;;;;;;4918100;29;20284;-44
2022/11/04 06:19:31;;;;;;;22.03;11.63;;;;;;;;;;4917465;29;20667;-43
2022/11/04 06:21:59;;;;;;;36.37;16.73;;;;;;;;;;4918408;29;20254;-44
2022/11/04 06:24:26;;;;;;;27.10;12.93;;;;;;;;;;4918983;29;20228;-43
2022/11/04 06:26:53;;;;;;;25.60;12.70;;;;;;;;;;4918404;29;20600;-44
2022/11/04 06:29:20;;;;;;;23.13;11.50;;;;;;;;;;4919532;29;20212;-43
2022/11/04 06:31:47;;;;;;;23.07;12.03;;;;;;;;;;4918621;29;20252;-44
2022/11/04 06:34:14;;;;;;;20.80;11.80;;;;;;;;;;4918425;29;20224;-43
2022/11/04 06:36:41;;;;;;;21.03;12.17;;;;;;;;;;4918831;29;20255;-43
2022/11/04 06:39:08;;;;;;;21.47;11.97;;;;;;;;;;4901973;29;20212;-43
2022/11/04 06:41:35;;;;;;;22.53;12.00;;;;;;;;;;4918750;29;20295;-43
2022/11/04 06:44:03;;;;;;;20.00;11.87;;;;;;;;;;4918555;29;20208;-43
2022/11/04 06:46:41;;;;;;;20.20;12.67;;;;;;;;;;4918723;29;20272;-43
2022/11/04 06:49:11;;;;;;;20.07;11.93;;;;;;;;;;4918837;29;20211;-43
2022/11/04 06:51:38;;;;;;;22.70;12.57;;;;;;;;;;4918526;29;20241;-43
2022/11/04 06:54:05;;;;;;;23.80;12.30;;;;;;;;;;4918693;29;20224;-43
2022/11/04 06:56:32;;;;;;;26.10;12.53;;;;;;;;;;4918647;29;20221;-43
2022/11/04 06:58:59;;;;;;;26.63;12.50;;;;;;;;;;4918713;29;20216;-44
2022/11/04 07:01:28;;;;;;;21.60;11.57;;;;;;;;;;4918412;29;20235;-45
2022/11/04 07:03:57;;;;;;;22.53;10.83;;;;;;;;;;4918388;29;20204;-43
2022/11/04 07:06:25;;;;;;;22.30;11.40;;;;;;;;;;4918293;29;20260;-43
2022/11/04 07:08:56;;;;;;;19.50;11.00;;;;;;;;;;4919033;29;20216;-43
2022/11/04 07:11:24;;;;;;;20.70;10.90;;;;;;;;;;4918642;29;20201;-43
2022/11/04 07:13:51;;;;;;;17.10;10.00;;;;;;;;;;4918683;29;20219;-44
2022/11/04 07:16:18;;;;;;;19.13;10.27;;;;;;;;;;4918316;29;20236;-43
2022/11/04 07:18:45;;;;;;;16.67;8.67;;;;;;;;;;4918198;29;20651;-43
2022/11/04 07:21:12;;;;;;;15.80;9.60;;;;;;;;;;4918643;29;20294;-43
2022/11/04 07:23:39;;;;;;;17.20;9.30;;;;;;;;;;4918144;29;20532;-44
2022/11/04 07:26:07;;;;;;;17.27;9.27;;;;;;;;;;4918215;29;20291;-43
2022/11/04 07:28:35;;;;;;;21.73;10.13;;;;;;;;;;4918280;29;20677;-44
2022/11/04 07:31:04;;;;;;;17.80;10.87;;;;;;;;;;4918051;29;20629;-46
2022/11/04 07:33:32;;;;;;;16.50;10.27;;;;;;;;;;4901929;29;20229;-44
2022/11/04 07:36:04;;;;;;;16.63;10.07;;;;;;;;;;4921871;29;20208;-44
2022/11/04 07:38:31;;;;;;;19.53;10.33;;;;;;;;;;4922322;29;20705;-44
2022/11/04 07:40:59;;;;;;;17.27;9.20;;;;;;;;;;4922183;29;20201;-44
2022/11/04 07:43:26;;;;;;;22.60;10.07;;;;;;;;;;4921553;29;20220;-44
2022/11/04 07:46:07;;;;;;;16.70;9.25;;;;;;;;;;4921605;29;20205;-43
2022/11/04 07:48:35;;;;;;;18.50;10.02;;;;;;;;;;4905360;29;20209;-43
2022/11/04 07:51:05;;;;;;;16.85;8.95;;;;;;;;;;4905004;29;20636;-44
2022/11/04 07:53:33;;;;;;;17.90;8.73;;;;;;;;;;4921447;29;20236;-43
2022/11/04 07:56:05;;;;;;;16.08;9.25;;;;;;;;;;4921601;29;20209;-44
2022/11/04 07:58:33;;;;;;;18.27;8.73;;;;;;;;;;4921471;29;20217;-44
2022/11/04 08:01:02;;;;;;;15.65;9.40;;;;;;;;;;4921225;29;20205;-44
2022/11/04 08:03:29;;;;;;;17.77;8.90;;;;;;;;;;4921471;29;20223;-44
2022/11/04 08:05:58;;;;;;;18.37;9.90;;;;;;;;;;4921456;29;20224;-44
2022/11/04 08:08:26;;;;;;;14.85;8.60;;;;;;;;;;4921415;29;20518;-44
2022/11/04 08:10:59;;;;;;;20.40;9.07;;;;;;;;;;4920996;29;20205;-44
2022/11/04 08:13:28;;;;;;;16.58;10.57;;;;;;;;;;4921595;29;20233;-43
2022/11/04 08:15:55;;;;;;;15.07;8.45;;;;;;;;;;4921366;29;20719;-44
2022/11/04 08:18:23;;;;;;;18.77;9.38;;;;;;;;;;4921169;29;20212;-44
2022/11/04 08:20:50;;;;;;;13.45;8.82;;;;;;;;;;4920928;29;20204;-44
2022/11/04 08:23:18;;;;;;;18.20;8.52;;;;;;;;;;4921200;29;20232;-43
2022/11/04 08:25:45;;;;;;;13.45;8.35;;;;;;;;;;4920813;29;20205;-44
2022/11/04 08:28:16;;;;;;;15.95;8.80;;;;;;;;;;4921240;29;20235;-45
2022/11/04 08:30:55;;;;;;;21.20;9.27;;;;;;;;;;4921114;29;20208;-44
2022/11/04 08:33:23;;;;;;;12.80;8.73;;;;;;;;;;4921329;29;20228;-44
2022/11/04 08:35:51;;;;;;;14.77;8.30;;;;;;;;;;4920676;29;20244;-44
2022/11/04 08:38:18;;;;;;;14.25;8.82;;;;;;;;;;4920597;29;20205;-44
2022/11/04 08:40:45;;;;;;;17.05;9.60;;;;;;;;;;4920473;29;20221;-43
2022/11/04 08:43:12;;;;;;;18.00;8.43;;;;;;;;;;4920532;29;20224;-44
2022/11/04 08:45:44;;;;;;;19.02;9.68;;;;;;;;;;4920507;29;20209;-43
2022/11/04 08:48:12;;;;;;;20.00;10.05;;;;;;;;;;4920864;29;20197;-44
2022/11/04 08:50:39;;;;;;;20.55;9.73;;;;;;;;;;4920923;29;20239;-44
2022/11/04 08:53:07;;;;;;;19.48;9.73;;;;;;;;;;4920739;29;20236;-44
2022/11/04 08:55:35;;;;;;;19.30;9.43;;;;;;;;;;4920302;29;20635;-44
2022/11/04 08:58:02;;;;;;;21.13;9.90;;;;;;;;;;4920272;29;20632;-44
2022/11/04 09:00:29;;;;;;;18.30;8.85;;;;;;;;;;4920375;29;20296;-43
2022/11/04 09:02:56;;;;;;;15.27;9.35;;;;;;;;;;4920366;29;20208;-43
2022/11/04 09:05:23;;;;;;;16.88;8.93;;;;;;;;;;4920454;29;20507;-44
2022/11/04 09:07:50;;;;;;;17.42;9.38;;;;;;;;;;4920372;29;20208;-43
2022/11/04 09:10:17;;;;;;;19.10;9.35;;;;;;;;;;4920246;29;20228;-44
2022/11/04 09:12:44;;;;;;;15.07;8.70;;;;;;;;;;4920488;29;20674;-43
2022/11/04 09:15:11;;;;;;;14.70;7.65;;;;;;;;;;4919994;29;20613;-44
2022/11/04 09:17:39;;;;;;;19.38;9.48;;;;;;;;;;4920107;29;20235;-44
2022/11/04 09:20:07;;;;;;;16.75;8.52;;;;;;;;;;4920141;29;20239;-44
2022/11/04 09:22:34;;;;;;;21.38;8.52;;;;;;;;;;4920001;29;20626;-43
2022/11/04 09:25:02;;;;;;;14.73;7.95;;;;;;;;;;4919724;29;20244;-43
2022/11/04 09:27:29;;;;;;;13.95;8.20;;;;;;;;;;4920003;29;20220;-44
2022/11/04 09:29:56;;;;;;;15.80;8.25;;;;;;;;;;4919859;29;20232;-44
2022/11/04 09:32:23;;;;;;;13.45;8.43;;;;;;;;;;4920044;29;20237;-44
2022/11/04 09:34:50;;;;;;;18.25;9.80;;;;;;;;;;4919842;29;20209;-44
2022/11/04 09:37:17;;;;;;;41.42;20.13;;;;;;;;;;4919637;29;20699;-44
2022/11/04 09:39:44;;;;;;;23.85;13.95;;;;;;;;;;4903217;29;20243;-43
2022/11/04 09:42:31;;;;;;;21.85;11.60;;;;;;;;;;4919793;29;20571;-41
2022/11/04 09:45:01;;;;;;;61.65;30.20;;;;;;;;;;4919839;29;20232;-44
2022/11/04 09:47:49;;;;;;;53.05;28.80;;;;;;;;;;4919467;29;20216;-43
2022/11/04 09:50:23;;;;;;;21.20;10.25;;;;;;;;;;4902950;29;20244;-44
2022/11/04 09:53:07;;;;;;;20.60;9.75;;;;;;;;;;4903252;29;20542;-44
2022/11/04 09:55:41;;;;;;;31.23;15.48;;;;;;;;;;4903317;29;20220;-44
2022/11/04 09:58:11;;;;;;;38.03;19.30;;;;;;;;;;4902569;29;20197;-43
2022/11/04 10:00:38;;;;;;;29.38;16.40;;;;;;;;;;4903347;29;20201;-44
2022/11/04 10:03:27;;;;;;;17.65;10.20;;;;;;;;;;4902925;29;20581;-44
2022/11/04 10:06:16;;;;;;;17.00;8.60;;;;;;;;;;4919392;29;20189;-44
2022/11/04 10:08:49;;;;;;;18.65;7.25;;;;;;;;;;4919258;29;20208;-43
2022/11/04 10:11:26;;;;;;;13.77;7.20;;;;;;;;;;4919113;29;20204;-43
2022/11/04 10:14:10;;;;;;;25.98;7.22;;;;;;;;;;4918996;29;20675;-44
2022/11/04 10:16:45;;;;;;;15.88;7.68;;;;;;;;;;4903249;29;20585;-41
2022/11/04 10:19:27;;;;;;;14.57;6.82;;;;;;;;;;4919537;29;20283;-44
2022/11/04 10:22:07;;;;;;;14.80;7.47;;;;;;;;;;4919178;29;20193;-44
2022/11/04 10:24:40;;;;;;;12.88;6.72;;;;;;;;;;4902732;29;20271;-44
2022/11/04 10:27:20;;;;;;;14.20;7.00;;;;;;;;;;4919321;29;20508;-43
2022/11/04 10:29:51;;;;;;;12.73;6.53;;;;;;;;;;4902768;29;20189;-42
2022/11/04 10:32:28;;;;;;;12.05;6.60;;;;;;;;;;4918921;29;20263;-44
2022/11/04 10:35:24;;;;;;;11.95;6.53;;;;;;;;;;4902750;29;20518;-44
2022/11/04 10:37:53;;;;;;;11.43;6.30;;;;;;;;;;4917565;29;20260;-45
2022/11/04 10:40:27;;;;;;;13.57;6.18;;;;;;;;;;4902280;29;20208;-45
2022/11/04 10:42:57;;;;;;;13.35;6.03;;;;;;;;;;4918915;29;20224;-44
2022/11/04 10:45:58;;;;;;;13.43;5.82;;;;;;;;;;4902680;29;20204;-44
2022/11/04 10:48:30;;;;;;;28.30;15.20;;;;;;;;;;4908778;29;20209;-44
2022/11/04 10:50:58;;;;;;;16.85;8.07;;;;;;;;;;4918744;29;20204;-44
2022/11/04 10:53:30;;;;;;;15.77;7.85;;;;;;;;;;4901957;29;20240;-44
2022/11/04 10:56:01;;;;;;;15.00;6.95;;;;;;;;;;4902584;29;20208;-44
2022/11/04 10:58:34;;;;;;;17.73;6.65;;;;;;;;;;4918510;29;20235;-43
2022/11/04 11:01:25;;;;;;;17.00;6.55;;;;;;;;;;4902602;29;20209;-44
2022/11/04 11:03:53;;;;;;;17.00;8.18;;;;;;;;;;4902264;29;20211;-44
2022/11/04 11:06:20;;;;;;;19.45;9.82;;;;;;;;;;4918675;29;20201;-43
2022/11/04 11:08:47;;;;;;;17.98;7.55;;;;;;;;;;4919622;29;20518;-43
2022/11/04 11:11:14;;;;;;;17.20;8.07;;;;;;;;;;4905785;29;20213;-44
2022/11/04 11:13:45;;;;;;;12.95;7.05;;;;;;;;;;4921824;29;20672;-42
2022/11/04 11:16:20;;;;;;;20.08;6.50;;;;;;;;;;4922269;29;20572;-44
2022/11/04 11:19:07;;;;;;;14.20;6.60;;;;;;;;;;4906691;29;20212;-43
2022/11/04 11:21:51;;;;;;;13.20;6.68;;;;;;;;;;4906112;29;20219;-44
2022/11/04 11:24:24;;;;;;;12.77;6.35;;;;;;;;;;4922206;29;20244;-44
2022/11/04 11:26:53;;;;;;;14.68;6.15;;;;;;;;;;4921953;29;20204;-43
2022/11/04 11:29:24;;;;;;;11.77;6.28;;;;;;;;;;4922212;29;20224;-43
2022/11/04 11:31:52;;;;;;;37.88;19.05;;;;;;;;;;4905717;29;20279;-43
2022/11/04 11:34:30;;;;;;;14.73;6.30;;;;;;;;;;4921892;29;20224;-43
2022/11/04 11:36:57;;;;;;;14.63;7.40;;;;;;;;;;4905630;29;20276;-42
2022/11/04 11:39:27;;;;;;;13.30;5.68;;;;;;;;;;4921713;29;20230;-43
2022/11/04 11:42:01;;;;;;;13.38;5.75;;;;;;;;;;4921568;29;20200;-44
2022/11/04 11:44:56;;;;;;;15.75;7.80;;;;;;;;;;4905448;29;20719;-43
2022/11/04 11:47:29;;;;;;;19.33;9.13;;;;;;;;;;4905320;29;20596;-43
2022/11/04 11:50:18;;;;;;;21.77;9.98;;;;;;;;;;4921890;29;20199;-43
2022/11/04 11:52:46;;;;;;;12.85;6.60;;;;;;;;;;4922187;29;20280;-44
2022/11/04 11:55:34;;;;;;;14.85;5.93;;;;;;;;;;4921573;29;20216;-44
2022/11/04 11:58:18;;;;;;;14.95;6.60;;;;;;;;;;4905254;29;20624;-44
2022/11/04 12:01:16;;;;;;;16.85;7.10;;;;;;;;;;4907648;29;20598;-44
2022/11/04 12:03:51;;;;;;;13.57;7.35;;;;;;;;;;4905973;29;20599;-44
2022/11/04 12:06:57;;;;;;;15.45;5.85;;;;;;;;;;4921109;29;20205;-43
2022/11/04 12:10:07;;;;;;;21.05;9.48;;;;;;;;;;4921519;29;20209;-43
2022/11/04 12:12:55;;;;;;;29.10;11.98;;;;;;;;;;4918935;29;20220;-44
2022/11/04 12:15:34;;;;;;;29.50;13.00;;;;;;;;;;4921916;29;20564;-44
2022/11/04 12:18:01;;;;;;;24.50;10.55;;;;;;;;;;4905259;29;20189;-43
2022/11/04 12:20:44;;;;;;;15.93;7.78;;;;;;;;;;4920343;29;20284;-43
2022/11/04 12:23:30;;;;;;;19.80;6.85;;;;;;;;;;4921159;29;20209;-44
2022/11/04 12:26:19;;;;;;;11.57;6.28;;;;;;;;;;4921156;29;20209;-46
2022/11/04 12:29:15;;;;;;;15.75;6.90;;;;;;;;;;4921279;29;20208;-43
2022/11/04 12:31:53;;;;;;;10.93;6.70;;;;;;;;;;4906985;29;20216;-43
2022/11/04 12:34:48;;;;;;;13.15;6.43;;;;;;;;;;4920907;29;20614;-44
2022/11/04 12:37:34;;;;;;;11.63;6.10;;;;;;;;;;4904656;29;20205;-43
2022/11/04 12:40:10;;;;;;;10.45;6.00;;;;;;;;;;4920733;29;20521;-44
2022/11/04 12:42:58;;;;;;;15.32;6.10;;;;;;;;;;4921177;29;20208;-44
2022/11/04 12:45:53;;;;;;;12.15;6.22;;;;;;;;;;4920512;29;20209;-44
2022/11/04 12:48:43;;;;;;;13.35;5.43;;;;;;;;;;4920764;29;20209;-44
2022/11/04 12:51:12;;;;;;;10.80;5.47;;;;;;;;;;4920563;29;20216;-44
2022/11/04 12:53:58;;;;;;;11.65;5.53;;;;;;;;;;4903982;29;20790;-44
2022/11/04 12:56:37;;;;;;;9.25;5.28;;;;;;;;;;4920819;29;20212;-44
2022/11/04 12:59:16;;;;;;;10.95;5.45;;;;;;;;;;4920191;29;20200;-44
2022/11/04 13:02:00;;;;;;;13.20;6.43;;;;;;;;;;4921410;29;20212;-45
2022/11/04 13:04:35;;;;;;;13.52;5.65;;;;;;;;;;4917973;29;20223;-44
2022/11/04 13:07:08;;;;;;;13.98;6.07;;;;;;;;;;4902663;29;20643;-44
2022/11/04 13:09:36;;;;;;;12.23;6.05;;;;;;;;;;4920066;29;20697;-44
2022/11/04 13:12:14;;;;;;;14.70;6.40;;;;;;;;;;4903708;29;20213;-43
2022/11/04 13:14:54;;;;;;;13.15;5.57;;;;;;;;;;4901606;29;20323;-46
2022/11/04 13:17:40;;;;;;;14.30;5.70;;;;;;;;;;4903135;29;20196;-46
2022/11/04 13:20:46;;;;;;;11.23;5.07;;;;;;;;;;4903498;29;20572;-45
2022/11/04 13:23:19;;;;;;;10.30;5.22;;;;;;;;;;4927774;29;20271;-47
2022/11/04 13:25:47;;;;;;;12.80;5.88;;;;;;;;;;4909442;29;20201;-45
2022/11/04 13:28:16;;;;;;;11.60;5.50;;;;;;;;;;4898281;29;20228;-45
2022/11/04 13:30:55;;;;;;;11.07;4.95;;;;;;;;;;4902078;29;20239;-45
2022/11/04 13:33:29;;;;;;;11.25;5.25;;;;;;;;;;4918058;29;20232;-45
2022/11/04 13:36:23;;;;;;;11.07;5.10;;;;;;;;;;4906350;29;20225;-46
2022/11/04 13:38:54;;;;;;;12.73;5.90;;;;;;;;;;4926575;29;20231;-45
2022/11/04 13:41:37;;;;;;;15.10;6.03;;;;;;;;;;4903806;29;20221;-45
2022/11/04 13:44:32;;;;;;;9.88;4.93;;;;;;;;;;4901822;29;20560;-47
2022/11/04 13:47:02;;;;;;;10.50;5.80;;;;;;;;;;4908170;29;20251;-46
2022/11/04 13:49:32;;;;;;;11.55;5.43;;;;;;;;;;4902004;29;20221;-45
2022/11/04 13:52:07;;;;;;;10.35;5.13;;;;;;;;;;4918668;29;20229;-44
2022/11/04 13:54:45;;;;;;;15.98;5.50;;;;;;;;;;4917765;29;20631;-43
2022/11/04 13:57:17;;;;;;;10.25;5.15;;;;;;;;;;4901276;29;20594;-45
2022/11/04 14:00:03;;;;;;;11.10;5.63;;;;;;;;;;4918251;29;20232;-46
2022/11/04 14:02:40;;;;;;;11.77;5.68;;;;;;;;;;4918343;29;20232;-45
2022/11/04 14:05:44;;;;;;;20.98;10.93;;;;;;;;;;4917497;29;20228;-46
2022/11/04 14:08:15;;;;;;;55.95;32.22;;;;;;;;;;4917861;29;20621;-46
2022/11/04 14:10:43;;;;;;;269.23;142.73;;;;;;;;;;4901677;29;20565;-47
2022/11/04 14:13:29;;;;;;;83.85;66.28;;;;;;;;;;4917510;29;20328;-44
2022/11/04 14:16:38;;;;;;;14.25;7.88;;;;;;;;;;4909496;29;20244;-45
2022/11/04 14:19:44;;;;;;;15.10;6.65;;;;;;;;;;4859602;29;20254;-44
2022/11/04 14:22:16;;;;;;;12.48;5.80;;;;;;;;;;4841595;29;20241;-44
2022/11/04 14:24:43;;;;;;;9.90;5.40;;;;;;;;;;4842073;29;20262;-47
2022/11/04 14:27:28;;;;;;;12.35;6.32;;;;;;;;;;4859185;29;20235;-48
2022/11/04 14:29:55;;;;;;;37.17;16.40;;;;;;;;;;4844316;29;20241;-45
2022/11/04 14:32:30;;;;;;;38.35;19.77;;;;;;;;;;4860120;29;20693;-48
2022/11/04 14:35:03;;;;;;;81.85;33.08;;;;;;;;;;4857357;29;20663;-48
2022/11/04 14:37:33;;;;;;;87.15;33.75;;;;;;;;;;4857801;29;20234;-51
2022/11/04 14:40:03;;;;;;;129.75;48.35;;;;;;;;;;4857695;29;20334;-46
2022/11/04 14:42:43;;;;;;;328.75;121.03;;;;;;;;;;4857582;29;20235;-46
2022/11/04 14:45:33;;;;;;;214.43;96.95;;;;;;;;;;4857086;29;20241;-46
2022/11/04 14:48:12;;;;;;;79.78;40.22;;;;;;;;;;4857846;29;20698;-49
2022/11/04 14:50:44;;;;;;;148.65;59.35;;;;;;;;;;4844632;29;20630;-47
2022/11/04 14:53:29;;;;;;;194.00;59.97;;;;;;;;;;4893425;29;20702;-47
2022/11/04 14:56:17;;;;;;;161.13;49.97;;;;;;;;;;4899633;29;20240;-46
2022/11/04 14:58:57;;;;;;;150.88;45.42;;;;;;;;;;4889762;29;20228;-44
2022/11/04 15:01:28;;;;;;;128.25;41.60;;;;;;;;;;4917168;29;20247;-46
2022/11/04 15:04:13;;;;;;;121.43;38.80;;;;;;;;;;4902016;29;20247;-46
2022/11/04 15:06:41;;;;;;;182.57;49.42;;;;;;;;;;4900576;29;20232;-47
2022/11/04 15:09:27;;;;;;;144.40;42.30;;;;;;;;;;4917715;29;20224;-44
2022/11/04 15:14:51;;;;;;;141.52;47.50;;;;;;;;;;4903272;29;20248;-48
2022/11/04 15:17:19;;;;;;;94.38;34.85;;;;;;;;;;4917316;29;20229;-46
2022/11/04 15:19:52;;;;;;;39.30;17.83;;;;;;;;;;4901326;29;20551;-47
2022/11/04 15:22:19;;;;;;;59.97;26.20;;;;;;;;;;4900747;29;20603;-47
2022/11/04 15:24:47;;;;;;;85.78;35.63;;;;;;;;;;4917286;29;20233;-47
2022/11/04 15:27:17;;;;;;;104.25;39.92;;;;;;;;;;4915843;29;20316;-47
2022/11/04 15:29:59;;;;;;;157.85;51.40;;;;;;;;;;4900428;29;20228;-46
2022/11/04 15:32:26;;;;;;;240.48;74.10;;;;;;;;;;4917184;29;20236;-48
2022/11/04 15:34:54;;;;;;;174.80;58.85;;;;;;;;;;4916978;29;20255;-44